createdAt,value
2023-03-21T00:01:29.265Z,11.92
2023-03-21T00:03:55.424Z,11.65
2023-03-21T00:06:22.204Z,11.93
2023-03-21T00:08:48.440Z,11.82
2023-03-21T00:11:14.951Z,11.96
2023-03-21T00:13:42.766Z,6.32
2023-03-21T00:16:20.336Z,11.77
2023-03-21T00:18:51.756Z,11.70
2023-03-21T00:21:44.227Z,11.86
2023-03-21T00:24:07.264Z,11.84
2023-03-21T00:26:33.853Z,11.97
2023-03-21T00:28:59.949Z,12.09
2023-03-21T00:31:26.524Z,11.89
2023-03-21T00:33:52.621Z,10.86
2023-03-21T00:36:18.886Z,11.20
2023-03-21T00:38:45.289Z,11.63
2023-03-21T00:41:23.698Z,11.48
2023-03-21T00:44:00.039Z,11.01
2023-03-21T00:46:30.117Z,11.59
2023-03-21T00:49:02.850Z,9.22
2023-03-21T00:51:29.809Z,11.05
2023-03-21T00:53:57.622Z,11.36
2023-03-21T00:56:23.876Z,11.42
2023-03-21T00:58:50.535Z,9.05
2023-03-21T01:01:17.096Z,11.18
2023-03-21T01:03:50.027Z,10.79
2023-03-21T01:06:18.675Z,11.06
2023-03-21T01:08:53.817Z,11.35
2023-03-21T01:11:23.893Z,11.39
2023-03-21T01:13:56.102Z,11.24
2023-03-21T01:16:28.217Z,10.68
2023-03-21T01:18:55.383Z,11.04
2023-03-21T01:21:21.484Z,11.07
2023-03-21T01:23:47.822Z,10.92
2023-03-21T01:26:14.988Z,9.76
2023-03-21T01:28:42.150Z,10.63
2023-03-21T01:31:09.092Z,10.53
2023-03-21T01:33:35.488Z,10.67
2023-03-21T01:36:12.173Z,10.55
2023-03-21T01:38:40.794Z,9.86
2023-03-21T01:41:18.787Z,10.69
2023-03-21T01:43:45.670Z,10.83
2023-03-21T01:46:32.227Z,11.21
2023-03-21T01:49:12.423Z,10.93
2023-03-21T01:52:06.586Z,10.45
2023-03-21T01:54:39.398Z,10.90
2023-03-21T01:57:09.221Z,10.47
2023-03-21T01:59:43.642Z,10.76
2023-03-21T02:02:22.570Z,10.78
2023-03-21T02:04:50.450Z,10.94
2023-03-21T02:07:18.848Z,10.51
2023-03-21T02:09:47.028Z,10.94
2023-03-21T02:12:15.491Z,9.93
2023-03-21T02:14:42.144Z,10.87
2023-03-21T02:17:14.390Z,11.13
2023-03-21T02:19:53.348Z,10.68
2023-03-21T02:22:36.003Z,10.75
2023-03-21T02:25:26.284Z,10.69
2023-03-21T02:27:57.995Z,10.82
2023-03-21T02:30:51.737Z,11.07
2023-03-21T02:33:40.681Z,10.80
2023-03-21T02:36:17.078Z,10.85
2023-03-21T02:38:51.927Z,11.00
2023-03-21T02:41:48.993Z,10.90
2023-03-21T02:44:22.940Z,10.86
2023-03-21T02:47:05.421Z,10.94
2023-03-21T02:49:37.649Z,10.66
2023-03-21T02:52:14.455Z,10.94
2023-03-21T02:54:48.342Z,10.98
2023-03-21T02:57:17.753Z,10.41
2023-03-21T02:59:54.353Z,11.30
2023-03-21T03:02:26.917Z,11.25
2023-03-21T03:04:53.082Z,11.08
2023-03-21T03:07:36.224Z,10.85
2023-03-21T03:10:14.879Z,10.79
2023-03-21T03:12:52.007Z,10.92
2023-03-21T03:15:27.754Z,9.68
2023-03-21T03:18:02.681Z,9.06
2023-03-21T03:20:52.174Z,10.45
2023-03-21T03:23:42.755Z,10.79
2023-03-21T03:26:14.756Z,10.70
2023-03-21T03:28:45.403Z,9.08
2023-03-21T03:31:14.064Z,10.70
2023-03-21T03:33:43.757Z,10.76
2023-03-21T03:36:21.364Z,11.01
2023-03-21T03:38:51.109Z,11.22
2023-03-21T03:41:20.365Z,11.25
2023-03-21T03:43:51.551Z,9.92
2023-03-21T03:46:24.798Z,10.76
2023-03-21T03:48:55.070Z,10.97
2023-03-21T03:51:28.633Z,10.85
2023-03-21T03:54:01.065Z,10.83
2023-03-21T03:56:28.172Z,10.43
2023-03-21T03:58:55.978Z,10.81
2023-03-21T04:01:22.102Z,10.34
2023-03-21T04:03:52.997Z,11.06
2023-03-21T04:06:27.197Z,10.40
2023-03-21T04:08:53.289Z,10.73
2023-03-21T04:11:19.543Z,11.04
2023-03-21T04:13:45.868Z,10.91
2023-03-21T04:16:12.225Z,10.42
2023-03-21T04:18:41.749Z,10.90
2023-03-21T04:21:12.364Z,11.26
2023-03-21T04:23:39.525Z,11.14
2023-03-21T04:26:06.147Z,5.29
2023-03-21T04:28:33.293Z,10.68
2023-03-21T04:31:05.048Z,10.81
2023-03-21T04:33:37.679Z,10.78
2023-03-21T04:36:05.908Z,10.72
2023-03-21T04:38:33.151Z,10.92
2023-03-21T04:41:00.068Z,10.55
2023-03-21T04:43:27.710Z,10.70
2023-03-21T04:45:55.033Z,10.87
2023-03-21T04:48:23.831Z,10.78
2023-03-21T04:50:50.602Z,10.97
2023-03-21T04:53:17.393Z,9.39
2023-03-21T04:55:44.467Z,10.84
2023-03-21T04:58:10.563Z,10.68
2023-03-21T05:00:38.375Z,10.39
2023-03-21T05:03:08.392Z,10.63
2023-03-21T05:05:37.744Z,9.07
2023-03-21T05:08:05.152Z,9.14
2023-03-21T05:10:31.709Z,10.45
2023-03-21T05:12:57.821Z,10.05
2023-03-21T05:15:23.924Z,10.34
2023-03-21T05:17:50.043Z,9.97
2023-03-21T05:20:17.037Z,10.43
2023-03-21T05:22:45.372Z,10.35
2023-03-21T05:25:12.536Z,10.37
2023-03-21T05:27:44.698Z,10.33
2023-03-21T05:30:13.578Z,10.56
2023-03-21T05:32:40.071Z,10.52
2023-03-21T05:35:06.775Z,10.56
2023-03-21T05:37:32.872Z,10.60
2023-03-21T05:39:59.002Z,10.70
2023-03-21T05:42:25.670Z,10.69
2023-03-21T05:44:51.780Z,10.70
2023-03-21T05:47:18.334Z,9.74
2023-03-21T05:49:44.644Z,10.13
2023-03-21T05:52:11.219Z,10.78
2023-03-21T05:54:37.388Z,8.73
2023-03-21T05:57:04.177Z,10.81
2023-03-21T05:59:30.452Z,10.40
2023-03-21T06:01:56.531Z,10.50
2023-03-21T06:04:22.650Z,10.60
2023-03-21T06:06:50.199Z,10.67
2023-03-21T06:09:16.278Z,10.64
2023-03-21T06:11:47.060Z,10.51
2023-03-21T06:14:13.207Z,9.03
2023-03-21T06:16:39.557Z,10.77
2023-03-21T06:19:05.683Z,10.78
2023-03-21T06:21:31.811Z,10.42
2023-03-21T06:23:57.938Z,10.57
2023-03-21T06:26:24.036Z,10.89
2023-03-21T06:28:50.370Z,10.63
2023-03-21T06:31:16.530Z,10.37
2023-03-21T06:33:42.740Z,10.22
2023-03-21T06:36:09.267Z,10.78
2023-03-21T06:38:37.356Z,10.58
2023-03-21T06:41:05.050Z,10.36
2023-03-21T06:43:31.403Z,10.56
2023-03-21T06:45:57.986Z,10.33
2023-03-21T06:48:24.220Z,10.43
2023-03-21T06:50:51.118Z,10.64
2023-03-21T06:53:19.918Z,10.85
2023-03-21T06:55:53.339Z,10.64
2023-03-21T06:58:20.302Z,9.71
2023-03-21T07:00:46.556Z,10.94
2023-03-21T07:03:13.054Z,10.88
2023-03-21T07:05:40.313Z,10.80
2023-03-21T07:08:09.961Z,10.67
2023-03-21T07:10:45.340Z,10.41
2023-03-21T07:13:12.652Z,10.54
2023-03-21T07:15:39.169Z,10.46
2023-03-21T07:18:05.884Z,10.53
2023-03-21T07:20:32.415Z,11.39
2023-03-21T07:22:58.489Z,10.59
2023-03-21T07:25:24.653Z,11.14
2023-03-21T07:27:50.732Z,11.38
2023-03-21T07:30:17.135Z,11.42
2023-03-21T07:32:44.906Z,11.27
2023-03-21T07:35:13.045Z,11.16
2023-03-21T07:37:40.066Z,11.35
2023-03-21T07:40:10.021Z,11.00
2023-03-21T07:42:37.035Z,11.15
2023-03-21T07:45:04.441Z,11.28
2023-03-21T07:47:31.178Z,11.08
2023-03-21T07:49:57.942Z,11.07
2023-03-21T07:52:24.243Z,10.38
2023-03-21T07:54:50.322Z,11.42
2023-03-21T07:57:17.020Z,10.99
2023-03-21T07:59:43.406Z,10.23
2023-03-21T08:02:14.443Z,11.16
2023-03-21T08:04:40.543Z,11.26
2023-03-21T08:07:06.714Z,11.26
2023-03-21T08:09:32.790Z,11.56
2023-03-21T08:11:58.853Z,11.55
2023-03-21T08:14:24.949Z,11.49
2023-03-21T08:16:51.286Z,11.33
2023-03-21T08:19:20.009Z,11.18
2023-03-21T08:21:46.375Z,11.40
2023-03-21T08:24:12.419Z,11.21
2023-03-21T08:26:38.661Z,11.58
2023-03-21T08:29:05.383Z,11.70
2023-03-21T08:31:31.492Z,10.18
2023-03-21T08:33:57.592Z,11.72
2023-03-21T08:36:23.921Z,11.63
2023-03-21T08:38:56.233Z,11.75
2023-03-21T08:41:24.597Z,11.92
2023-03-21T08:43:50.741Z,12.05
2023-03-21T08:46:16.864Z,11.61
2023-03-21T08:48:42.969Z,12.32
2023-03-21T08:51:09.097Z,11.39
2023-03-21T08:53:35.272Z,11.88
2023-03-21T08:56:01.384Z,12.13
2023-03-21T08:58:27.459Z,12.14
2023-03-21T09:00:53.520Z,10.91
2023-03-21T09:03:19.694Z,11.98
2023-03-21T09:05:45.946Z,12.10
2023-03-21T09:08:14.872Z,12.13
2023-03-21T09:10:40.980Z,12.18
2023-03-21T09:13:07.164Z,12.16
2023-03-21T09:15:34.537Z,12.18
2023-03-21T09:18:12.240Z,12.37
2023-03-21T09:20:39.250Z,12.18
2023-03-21T09:23:05.337Z,12.34
2023-03-21T09:25:31.974Z,11.85
2023-03-21T09:27:59.566Z,12.61
2023-03-21T09:30:26.527Z,12.60
2023-03-21T09:32:54.837Z,12.60
2023-03-21T09:35:21.319Z,12.88
2023-03-21T09:37:48.289Z,13.05
2023-03-21T09:40:18.937Z,12.58
2023-03-21T09:43:05.238Z,13.02
2023-03-21T09:45:49.672Z,12.49
2023-03-21T09:48:21.786Z,12.96
2023-03-21T09:50:48.433Z,12.91
2023-03-21T09:53:36.374Z,11.50
2023-03-21T09:56:02.903Z,12.83
2023-03-21T09:58:36.448Z,12.81
2023-03-21T10:01:10.500Z,12.54
2023-03-21T10:03:37.165Z,12.83
2023-03-21T10:06:07.827Z,13.08
2023-03-21T10:08:36.753Z,12.91
2023-03-21T10:11:20.968Z,12.91
2023-03-21T10:14:13.732Z,13.32
2023-03-21T10:16:42.975Z,13.53
2023-03-21T10:19:14.642Z,13.14
2023-03-21T10:22:00.276Z,13.51
2023-03-21T10:24:29.264Z,13.16
2023-03-21T10:26:55.743Z,13.08
2023-03-21T10:29:26.578Z,13.24
2023-03-21T10:31:53.881Z,13.19
2023-03-21T10:34:30.477Z,13.62
2023-03-21T10:36:56.722Z,13.46
2023-03-21T10:39:34.059Z,13.69
2023-03-21T10:42:00.329Z,13.63
2023-03-21T10:44:31.315Z,13.30
2023-03-21T10:47:08.546Z,13.50
2023-03-21T10:50:05.860Z,13.42
2023-03-21T10:52:27.318Z,13.43
2023-03-21T10:55:08.757Z,13.33
2023-03-21T10:57:37.305Z,13.21
2023-03-21T11:00:16.399Z,12.15
2023-03-21T11:02:47.604Z,13.29
2023-03-21T11:05:35.959Z,13.53
2023-03-21T11:08:10.445Z,13.59
2023-03-21T11:10:38.379Z,13.36
2023-03-21T11:13:17.069Z,13.65
2023-03-21T11:15:52.411Z,12.92
2023-03-21T11:18:24.657Z,13.43
2023-03-21T11:20:54.381Z,13.45
2023-03-21T11:23:21.230Z,13.60
2023-03-21T11:25:49.359Z,13.68
2023-03-21T11:28:21.684Z,13.69
2023-03-21T11:30:55.980Z,12.97
2023-03-21T11:33:27.057Z,13.56
2023-03-21T11:36:05.381Z,13.40
2023-03-21T11:38:36.401Z,13.31
2023-03-21T11:41:03.327Z,13.27
2023-03-21T11:43:36.205Z,13.34
2023-03-21T11:46:06.562Z,13.53
2023-03-21T11:48:38.460Z,13.38
2023-03-21T11:51:18.657Z,12.79
2023-03-21T11:53:54.365Z,13.11
2023-03-21T11:56:40.608Z,13.13
2023-03-21T11:59:28.087Z,13.25
2023-03-21T12:02:06.298Z,12.98
2023-03-21T12:04:32.360Z,13.34
2023-03-21T12:07:04.654Z,12.86
2023-03-21T12:09:37.013Z,12.33
2023-03-21T12:12:09.213Z,13.10
2023-03-21T12:14:54.692Z,12.80
2023-03-21T12:17:33.794Z,12.76
2023-03-21T12:20:37.620Z,12.80
2023-03-21T12:23:28.050Z,12.79
2023-03-21T12:26:11.664Z,13.09
2023-03-21T12:28:40.794Z,12.74
2023-03-21T12:31:20.359Z,13.09
2023-03-21T12:34:05.083Z,13.20
2023-03-21T12:36:40.674Z,13.02
2023-03-21T12:39:26.078Z,12.75
2023-03-21T12:42:17.988Z,12.56
2023-03-21T12:45:15.401Z,12.88
2023-03-21T12:47:44.572Z,13.12
2023-03-21T12:50:19.228Z,8.10
2023-03-21T12:52:50.175Z,13.24
2023-03-21T12:55:20.847Z,12.79
2023-03-21T12:57:57.472Z,12.90
2023-03-21T13:00:30.611Z,12.87
2023-03-21T13:03:11.372Z,12.85
2023-03-21T13:05:46.494Z,12.68
2023-03-21T13:08:29.724Z,12.67
2023-03-21T13:10:56.353Z,11.43
2023-03-21T13:13:32.622Z,12.39
2023-03-21T13:16:17.673Z,12.37
2023-03-21T13:18:49.422Z,12.14
2023-03-21T13:21:37.437Z,12.06
2023-03-21T13:24:20.028Z,12.05
2023-03-21T13:26:51.404Z,12.32
2023-03-21T13:29:43.626Z,12.27
2023-03-21T13:32:28.897Z,12.33
2023-03-21T13:35:00.868Z,11.66
2023-03-21T13:37:34.011Z,12.39
2023-03-21T13:40:10.063Z,11.36
2023-03-21T13:42:43.343Z,11.76
2023-03-21T13:45:11.685Z,12.16
2023-03-21T13:48:00.325Z,12.40
2023-03-21T13:50:30.045Z,12.54
2023-03-21T13:53:14.676Z,12.45
2023-03-21T13:55:43.799Z,12.13
2023-03-21T13:58:31.663Z,12.20
2023-03-21T14:01:31.585Z,12.33
2023-03-21T14:04:18.131Z,12.36
2023-03-21T14:07:10.724Z,12.22
2023-03-21T14:09:43.083Z,12.44
2023-03-21T14:12:17.262Z,12.65
2023-03-21T14:14:49.992Z,12.05
2023-03-21T14:17:27.500Z,12.36
2023-03-21T14:19:56.263Z,12.19
2023-03-21T14:22:22.517Z,12.23
2023-03-21T14:24:59.607Z,12.48
2023-03-21T14:27:30.000Z,12.03
2023-03-21T14:29:57.711Z,12.02
2023-03-21T14:32:25.957Z,12.25
2023-03-21T14:34:54.057Z,11.98
2023-03-21T14:37:47.008Z,12.33
2023-03-21T14:40:26.703Z,12.27
2023-03-21T14:42:53.142Z,12.29
2023-03-21T14:45:25.212Z,12.21
2023-03-21T14:48:00.640Z,11.99
2023-03-21T14:50:40.613Z,11.90
2023-03-21T14:53:11.841Z,12.09
2023-03-21T14:55:55.164Z,12.15
2023-03-21T14:58:21.320Z,12.02
2023-03-21T15:00:51.273Z,12.07
2023-03-21T15:03:19.347Z,11.49
2023-03-21T15:05:46.076Z,12.30
2023-03-21T15:08:20.280Z,11.88
2023-03-21T15:11:08.335Z,12.12
2023-03-21T15:13:49.561Z,12.02
2023-03-21T15:16:15.948Z,12.43
2023-03-21T15:18:42.876Z,12.24
2023-03-21T15:21:12.676Z,10.47
2023-03-21T15:23:50.626Z,11.66
2023-03-21T15:26:18.743Z,12.12
2023-03-21T15:28:47.003Z,12.07
2023-03-21T15:31:17.163Z,11.29
2023-03-21T15:33:51.815Z,12.07
2023-03-21T15:36:24.824Z,11.94
2023-03-21T15:38:51.055Z,12.03
2023-03-21T15:41:20.172Z,11.89
2023-03-21T15:44:01.856Z,11.84
2023-03-21T15:46:47.428Z,11.83
2023-03-21T15:49:16.320Z,12.10
2023-03-21T15:51:55.471Z,11.88
2023-03-21T15:54:29.312Z,11.52
2023-03-21T15:57:00.619Z,11.41
2023-03-21T15:59:30.163Z,11.27
2023-03-21T16:01:56.348Z,11.45
2023-03-21T16:04:23.670Z,11.64
2023-03-21T16:06:59.426Z,11.54
2023-03-21T16:09:25.876Z,10.88
2023-03-21T16:11:56.726Z,11.79
2023-03-21T16:14:27.063Z,11.85
2023-03-21T16:16:53.345Z,11.46
2023-03-21T16:19:19.451Z,11.64
2023-03-21T16:21:46.146Z,11.11
2023-03-21T16:24:12.776Z,11.30
2023-03-21T16:26:45.267Z,11.68
2023-03-21T16:29:15.167Z,11.74
2023-03-21T16:31:42.161Z,11.66
2023-03-21T16:34:08.478Z,11.30
2023-03-21T16:36:37.067Z,11.43
2023-03-21T16:39:25.575Z,11.37
2023-03-21T16:41:51.955Z,11.69
2023-03-21T16:44:19.057Z,11.67
2023-03-21T16:46:46.554Z,11.51
2023-03-21T16:49:23.122Z,11.44
2023-03-21T16:51:49.443Z,11.43
2023-03-21T16:54:15.712Z,11.56
2023-03-21T16:56:46.257Z,11.62
2023-03-21T16:59:13.502Z,11.69
2023-03-21T17:01:40.740Z,11.42
2023-03-21T17:04:07.920Z,11.65
2023-03-21T17:06:41.259Z,11.32
2023-03-21T17:09:10.159Z,11.39
2023-03-21T17:11:40.723Z,11.36
2023-03-21T17:14:08.308Z,11.35
2023-03-21T17:16:34.651Z,11.35
2023-03-21T17:19:01.907Z,11.37
2023-03-21T17:21:28.565Z,10.44
2023-03-21T17:23:55.374Z,11.44
2023-03-21T17:26:27.227Z,11.67
2023-03-21T17:28:56.080Z,11.58
2023-03-21T17:31:24.149Z,11.68
2023-03-21T17:33:50.237Z,10.91
2023-03-21T17:36:20.616Z,11.70
2023-03-21T17:38:47.027Z,11.28
2023-03-21T17:41:15.611Z,11.29
2023-03-21T17:43:42.194Z,11.31
2023-03-21T17:46:13.383Z,11.54
2023-03-21T17:48:40.006Z,11.74
2023-03-21T17:51:06.543Z,11.54
2023-03-21T17:53:32.588Z,11.52
2023-03-21T17:55:58.674Z,10.80
2023-03-21T17:58:25.532Z,11.46
2023-03-21T18:00:51.661Z,11.69
2023-03-21T18:03:19.699Z,11.86
2023-03-21T18:05:45.861Z,11.63
2023-03-21T18:08:12.746Z,11.94
2023-03-21T18:10:40.253Z,11.13
2023-03-21T18:13:06.703Z,12.07
2023-03-21T18:15:32.958Z,11.95
2023-03-21T18:17:59.018Z,11.75
2023-03-21T18:20:44.548Z,10.31
2023-03-21T18:23:13.543Z,11.62
2023-03-21T18:25:41.046Z,11.58
2023-03-21T18:28:12.002Z,11.60
2023-03-21T18:31:00.434Z,10.65
2023-03-21T18:33:26.490Z,11.09
2023-03-21T18:35:58.835Z,7.63
2023-03-21T18:38:26.890Z,11.28
2023-03-21T18:40:53.015Z,11.35
2023-03-21T18:46:05.799Z,11.60
2023-03-21T18:48:34.156Z,11.64
2023-03-21T18:51:00.806Z,11.58
2023-03-21T18:53:27.202Z,10.61
2023-03-21T18:55:53.711Z,11.31
2023-03-21T18:58:20.615Z,11.20
2023-03-21T19:00:46.861Z,11.13
2023-03-21T19:03:24.794Z,11.05
2023-03-21T19:05:59.448Z,11.35
2023-03-21T19:08:25.760Z,11.12
2023-03-21T19:10:52.153Z,11.44
2023-03-21T19:13:18.254Z,11.47
2023-03-21T19:15:44.421Z,10.86
2023-03-21T19:18:49.536Z,11.27
2023-03-21T19:21:00.142Z,11.48
2023-03-21T19:23:39.851Z,11.72
2023-03-21T19:26:12.874Z,11.83
2023-03-21T19:28:39.003Z,11.75
2023-03-21T19:31:06.655Z,11.73
2023-03-21T19:33:33.505Z,11.37
2023-03-21T19:36:15.289Z,11.60
2023-03-21T19:38:43.870Z,11.49
2023-03-21T19:41:09.950Z,11.57
2023-03-21T19:43:36.065Z,11.28
2023-03-21T19:46:02.369Z,11.20
2023-03-21T19:48:28.939Z,9.97
2023-03-21T19:53:42.183Z,11.27
2023-03-21T19:56:20.715Z,11.36
2023-03-21T19:58:49.042Z,11.19
2023-03-21T20:01:15.479Z,11.11
2023-03-21T20:03:43.564Z,10.80
2023-03-21T20:06:10.792Z,11.07
2023-03-21T20:09:05.715Z,11.01
2023-03-21T20:11:22.969Z,11.16
2023-03-21T20:13:49.086Z,11.46
2023-03-21T20:16:20.402Z,11.35
2023-03-21T20:18:46.708Z,10.96
2023-03-21T20:21:18.046Z,11.32
2023-03-21T20:23:48.513Z,11.15
2023-03-21T20:26:15.053Z,9.68
2023-03-21T20:28:55.985Z,11.42
2023-03-21T20:31:27.538Z,11.25
2023-03-21T20:33:53.672Z,11.36
2023-03-21T20:36:38.710Z,11.33
2023-03-21T20:39:06.403Z,11.00
2023-03-21T20:41:32.454Z,11.42
2023-03-21T20:44:41.659Z,11.56
2023-03-21T20:46:47.029Z,10.55
2023-03-21T20:49:13.533Z,11.07
2023-03-21T20:54:25.737Z,10.89
2023-03-21T20:56:51.877Z,10.52
2023-03-21T20:59:26.549Z,11.03
2023-03-21T21:01:54.990Z,11.12
2023-03-21T21:04:21.172Z,10.91
2023-03-21T21:06:47.575Z,10.99
2023-03-21T21:09:13.821Z,9.48
2023-03-21T21:12:05.642Z,10.84
2023-03-21T21:14:25.956Z,10.86
2023-03-21T21:16:52.056Z,10.05
2023-03-21T21:19:20.890Z,10.42
2023-03-21T21:21:47.018Z,10.99
2023-03-21T21:24:14.629Z,11.17
2023-03-21T21:26:45.400Z,11.12
2023-03-21T21:29:20.646Z,11.07
2023-03-21T21:31:49.214Z,11.10
2023-03-21T21:34:18.028Z,11.12
2023-03-21T21:36:44.962Z,11.03
2023-03-21T21:39:37.109Z,9.75
2023-03-21T21:42:03.716Z,10.49
2023-03-21T21:44:30.488Z,10.93
2023-03-21T21:46:57.157Z,11.07
2023-03-21T21:49:23.471Z,11.10
2023-03-21T21:51:49.528Z,11.22
2023-03-21T21:54:17.409Z,11.04
2023-03-21T21:56:47.520Z,10.88
2023-03-21T21:59:17.504Z,10.84
2023-03-21T22:01:43.553Z,10.95
2023-03-21T22:04:10.607Z,10.95
2023-03-21T22:06:37.070Z,10.88
2023-03-21T22:09:06.200Z,10.83
2023-03-21T22:11:32.932Z,10.50
2023-03-21T22:13:59.030Z,10.81
2023-03-21T22:16:25.501Z,10.79
2023-03-21T22:18:51.593Z,10.76
2023-03-21T22:21:17.702Z,10.43
2023-03-21T22:23:57.153Z,10.67
2023-03-21T22:26:23.453Z,10.80
2023-03-21T22:28:49.713Z,11.02
2023-03-21T22:31:16.199Z,10.86
2023-03-21T22:33:43.081Z,10.91
2023-03-21T22:36:10.036Z,10.84
2023-03-21T22:38:37.293Z,10.97
2023-03-21T22:41:05.228Z,10.88
2023-03-21T22:43:33.367Z,10.47
2023-03-21T22:46:01.285Z,10.63
2023-03-21T22:48:30.978Z,10.60
2023-03-21T22:50:58.196Z,10.32
2023-03-21T22:53:24.345Z,10.54
2023-03-21T22:55:50.565Z,10.54
2023-03-21T22:58:17.054Z,10.00
2023-03-21T23:00:43.213Z,9.08
2023-03-21T23:03:10.025Z,10.42
2023-03-21T23:05:40.468Z,10.47
2023-03-21T23:08:06.920Z,10.36
2023-03-21T23:10:33.077Z,9.27
2023-03-21T23:12:59.117Z,10.39
2023-03-21T23:15:25.156Z,10.67
2023-03-21T23:17:51.230Z,10.65
2023-03-21T23:20:17.474Z,10.49
2023-03-21T23:22:43.541Z,10.52
2023-03-21T23:25:09.589Z,10.57
2023-03-21T23:27:35.743Z,10.66
2023-03-21T23:30:05.578Z,10.49
2023-03-21T23:32:32.099Z,10.66
2023-03-21T23:34:58.804Z,10.18
2023-03-21T23:37:25.575Z,9.83
2023-03-21T23:39:54.715Z,10.19
2023-03-21T23:42:21.686Z,10.01
2023-03-21T23:44:47.750Z,10.40
2023-03-21T23:47:15.351Z,8.84
2023-03-21T23:49:49.420Z,10.51
2023-03-21T23:52:16.138Z,9.54
2023-03-21T23:54:42.356Z,9.61
2023-03-21T23:57:08.475Z,10.16
2023-03-21T23:59:34.534Z,10.33
